sensor_id;sensor_type;location;lat;lon;timestamp;P1;durP1;ratioP1;P2;durP2;ratioP2
11675;SDS011;5894;42.768;23.404;2023-05-23T00:00:22;8.90;;;5.38;;
11675;SDS011;5894;42.768;23.404;2023-05-23T00:02:50;8.25;;;5.22;;
11675;SDS011;5894;42.768;23.404;2023-05-23T00:05:21;6.50;;;5.20;;
11675;SDS011;5894;42.768;23.404;2023-05-23T00:07:49;7.72;;;6.47;;
11675;SDS011;5894;42.768;23.404;2023-05-23T00:10:16;9.43;;;6.38;;
11675;SDS011;5894;42.768;23.404;2023-05-23T00:12:51;8.95;;;5.93;;
11675;SDS011;5894;42.768;23.404;2023-05-23T00:15:23;8.88;;;6.20;;
11675;SDS011;5894;42.768;23.404;2023-05-23T00:17:52;6.38;;;5.60;;
11675;SDS011;5894;42.768;23.404;2023-05-23T00:20:19;7.10;;;5.53;;
11675;SDS011;5894;42.768;23.404;2023-05-23T00:22:50;9.05;;;6.50;;
11675;SDS011;5894;42.768;23.404;2023-05-23T00:25:18;11.05;;;5.75;;
11675;SDS011;5894;42.768;23.404;2023-05-23T00:27:47;6.78;;;5.50;;
11675;SDS011;5894;42.768;23.404;2023-05-23T00:30:21;7.15;;;5.07;;
11675;SDS011;5894;42.768;23.404;2023-05-23T00:32:48;6.45;;;3.83;;
11675;SDS011;5894;42.768;23.404;2023-05-23T00:35:21;3.85;;;3.45;;
11675;SDS011;5894;42.768;23.404;2023-05-23T00:37:54;4.43;;;3.60;;
11675;SDS011;5894;42.768;23.404;2023-05-23T00:40:30;7.75;;;4.25;;
11675;SDS011;5894;42.768;23.404;2023-05-23T00:43:03;6.35;;;4.68;;
11675;SDS011;5894;42.768;23.404;2023-05-23T00:45:30;5.05;;;4.38;;
11675;SDS011;5894;42.768;23.404;2023-05-23T00:48:04;6.28;;;4.88;;
11675;SDS011;5894;42.768;23.404;2023-05-23T00:50:40;8.02;;;6.03;;
11675;SDS011;5894;42.768;23.404;2023-05-23T00:53:20;8.40;;;5.70;;
11675;SDS011;5894;42.768;23.404;2023-05-23T00:56:08;10.93;;;6.13;;
11675;SDS011;5894;42.768;23.404;2023-05-23T00:58:39;9.88;;;6.03;;
11675;SDS011;5894;42.768;23.404;2023-05-23T01:01:07;7.15;;;5.63;;
11675;SDS011;5894;42.768;23.404;2023-05-23T01:03:40;7.60;;;6.25;;
11675;SDS011;5894;42.768;23.404;2023-05-23T01:06:11;8.93;;;5.63;;
11675;SDS011;5894;42.768;23.404;2023-05-23T01:08:38;7.63;;;5.78;;
11675;SDS011;5894;42.768;23.404;2023-05-23T01:11:11;7.07;;;5.93;;
11675;SDS011;5894;42.768;23.404;2023-05-23T01:13:46;7.13;;;6.22;;
11675;SDS011;5894;42.768;23.404;2023-05-23T01:16:23;8.60;;;6.43;;
11675;SDS011;5894;42.768;23.404;2023-05-23T01:19:00;7.00;;;6.20;;
11675;SDS011;5894;42.768;23.404;2023-05-23T01:21:47;7.07;;;6.22;;
11675;SDS011;5894;42.768;23.404;2023-05-23T01:24:31;5.95;;;5.43;;
11675;SDS011;5894;42.768;23.404;2023-05-23T01:27:15;7.07;;;4.53;;
11675;SDS011;5894;42.768;23.404;2023-05-23T01:29:52;4.85;;;4.40;;
11675;SDS011;5894;42.768;23.404;2023-05-23T01:32:22;5.40;;;4.40;;
11675;SDS011;5894;42.768;23.404;2023-05-23T01:34:52;8.88;;;4.32;;
11675;SDS011;5894;42.768;23.404;2023-05-23T01:37:23;4.35;;;3.83;;
11675;SDS011;5894;42.768;23.404;2023-05-23T01:39:53;5.47;;;4.60;;
11675;SDS011;5894;42.768;23.404;2023-05-23T01:42:20;8.35;;;4.70;;
11675;SDS011;5894;42.768;23.404;2023-05-23T01:45:00;5.38;;;4.70;;
11675;SDS011;5894;42.768;23.404;2023-05-23T01:47:38;6.07;;;4.75;;
11675;SDS011;5894;42.768;23.404;2023-05-23T01:50:08;14.48;;;6.00;;
11675;SDS011;5894;42.768;23.404;2023-05-23T01:52:40;7.82;;;5.80;;
11675;SDS011;5894;42.768;23.404;2023-05-23T01:55:19;11.20;;;6.18;;
11675;SDS011;5894;42.768;23.404;2023-05-23T01:57:49;8.73;;;5.57;;
11675;SDS011;5894;42.768;23.404;2023-05-23T02:00:25;9.23;;;5.80;;
11675;SDS011;5894;42.768;23.404;2023-05-23T02:02:56;7.00;;;6.00;;
11675;SDS011;5894;42.768;23.404;2023-05-23T02:05:28;18.52;;;6.28;;
11675;SDS011;5894;42.768;23.404;2023-05-23T02:08:04;28.60;;;5.78;;
11675;SDS011;5894;42.768;23.404;2023-05-23T02:10:33;13.15;;;6.15;;
11675;SDS011;5894;42.768;23.404;2023-05-23T02:13:11;9.18;;;6.03;;
11675;SDS011;5894;42.768;23.404;2023-05-23T02:15:40;7.68;;;5.88;;
11675;SDS011;5894;42.768;23.404;2023-05-23T02:18:12;9.40;;;6.05;;
11675;SDS011;5894;42.768;23.404;2023-05-23T02:20:41;9.90;;;6.18;;
11675;SDS011;5894;42.768;23.404;2023-05-23T02:23:17;8.88;;;6.20;;
11675;SDS011;5894;42.768;23.404;2023-05-23T02:25:46;8.20;;;6.20;;
11675;SDS011;5894;42.768;23.404;2023-05-23T02:28:15;11.77;;;6.45;;
11675;SDS011;5894;42.768;23.404;2023-05-23T02:30:49;9.90;;;5.70;;
11675;SDS011;5894;42.768;23.404;2023-05-23T02:33:16;9.35;;;6.35;;
11675;SDS011;5894;42.768;23.404;2023-05-23T02:35:44;11.73;;;6.85;;
11675;SDS011;5894;42.768;23.404;2023-05-23T02:38:12;8.75;;;6.25;;
11675;SDS011;5894;42.768;23.404;2023-05-23T02:40:40;13.93;;;7.15;;
11675;SDS011;5894;42.768;23.404;2023-05-23T02:43:07;13.05;;;6.97;;
11675;SDS011;5894;42.768;23.404;2023-05-23T02:45:34;14.43;;;7.53;;
11675;SDS011;5894;42.768;23.404;2023-05-23T02:48:08;11.88;;;6.95;;
11675;SDS011;5894;42.768;23.404;2023-05-23T02:50:49;11.00;;;7.20;;
11675;SDS011;5894;42.768;23.404;2023-05-23T02:53:16;10.68;;;7.40;;
11675;SDS011;5894;42.768;23.404;2023-05-23T02:55:47;25.80;;;8.27;;
11675;SDS011;5894;42.768;23.404;2023-05-23T02:58:14;12.70;;;7.63;;
11675;SDS011;5894;42.768;23.404;2023-05-23T03:00:41;16.40;;;8.88;;
11675;SDS011;5894;42.768;23.404;2023-05-23T03:03:10;13.32;;;8.70;;
11675;SDS011;5894;42.768;23.404;2023-05-23T03:05:37;13.77;;;8.80;;
11675;SDS011;5894;42.768;23.404;2023-05-23T03:08:06;15.70;;;8.18;;
11675;SDS011;5894;42.768;23.404;2023-05-23T03:10:33;11.48;;;8.25;;
11675;SDS011;5894;42.768;23.404;2023-05-23T03:13:00;14.88;;;8.68;;
11675;SDS011;5894;42.768;23.404;2023-05-23T03:15:28;15.48;;;9.55;;
11675;SDS011;5894;42.768;23.404;2023-05-23T03:17:55;25.88;;;8.50;;
11675;SDS011;5894;42.768;23.404;2023-05-23T03:20:24;15.82;;;8.73;;
11675;SDS011;5894;42.768;23.404;2023-05-23T03:22:53;11.65;;;8.35;;
11675;SDS011;5894;42.768;23.404;2023-05-23T03:25:21;9.80;;;8.80;;
11675;SDS011;5894;42.768;23.404;2023-05-23T03:27:49;11.60;;;8.88;;
11675;SDS011;5894;42.768;23.404;2023-05-23T03:30:22;11.60;;;8.55;;
11675;SDS011;5894;42.768;23.404;2023-05-23T03:32:49;13.73;;;8.68;;
11675;SDS011;5894;42.768;23.404;2023-05-23T03:35:18;11.43;;;9.27;;
11675;SDS011;5894;42.768;23.404;2023-05-23T03:37:47;11.60;;;8.55;;
11675;SDS011;5894;42.768;23.404;2023-05-23T03:40:14;10.63;;;8.52;;
11675;SDS011;5894;42.768;23.404;2023-05-23T03:42:42;9.98;;;8.35;;
11675;SDS011;5894;42.768;23.404;2023-05-23T03:45:09;11.27;;;8.15;;
11675;SDS011;5894;42.768;23.404;2023-05-23T03:47:39;8.20;;;7.15;;
11675;SDS011;5894;42.768;23.404;2023-05-23T03:50:11;8.32;;;7.15;;
11675;SDS011;5894;42.768;23.404;2023-05-23T03:52:41;8.27;;;7.28;;
11675;SDS011;5894;42.768;23.404;2023-05-23T03:55:10;9.50;;;7.57;;
11675;SDS011;5894;42.768;23.404;2023-05-23T03:57:37;10.13;;;6.72;;
11675;SDS011;5894;42.768;23.404;2023-05-23T04:00:05;8.23;;;7.22;;
11675;SDS011;5894;42.768;23.404;2023-05-23T04:02:42;10.60;;;7.50;;
11675;SDS011;5894;42.768;23.404;2023-05-23T04:05:11;8.93;;;7.85;;
11675;SDS011;5894;42.768;23.404;2023-05-23T04:07:39;9.80;;;8.05;;
11675;SDS011;5894;42.768;23.404;2023-05-23T04:10:08;10.95;;;8.07;;
11675;SDS011;5894;42.768;23.404;2023-05-23T04:12:37;8.77;;;7.75;;
11675;SDS011;5894;42.768;23.404;2023-05-23T04:15:10;9.35;;;8.13;;
11675;SDS011;5894;42.768;23.404;2023-05-23T04:17:48;8.88;;;7.80;;
11675;SDS011;5894;42.768;23.404;2023-05-23T04:20:16;9.07;;;7.88;;
11675;SDS011;5894;42.768;23.404;2023-05-23T04:22:43;8.45;;;7.53;;
11675;SDS011;5894;42.768;23.404;2023-05-23T04:25:12;10.15;;;8.32;;
11675;SDS011;5894;42.768;23.404;2023-05-23T04:27:46;8.75;;;7.72;;
11675;SDS011;5894;42.768;23.404;2023-05-23T04:30:13;9.57;;;7.63;;
11675;SDS011;5894;42.768;23.404;2023-05-23T04:32:42;10.00;;;8.15;;
11675;SDS011;5894;42.768;23.404;2023-05-23T04:35:10;14.88;;;9.15;;
11675;SDS011;5894;42.768;23.404;2023-05-23T04:37:39;10.20;;;8.55;;
11675;SDS011;5894;42.768;23.404;2023-05-23T04:40:08;12.48;;;9.05;;
11675;SDS011;5894;42.768;23.404;2023-05-23T04:43:14;12.85;;;9.02;;
11675;SDS011;5894;42.768;23.404;2023-05-23T04:45:55;11.82;;;8.32;;
11675;SDS011;5894;42.768;23.404;2023-05-23T04:48:41;9.70;;;8.18;;
11675;SDS011;5894;42.768;23.404;2023-05-23T04:51:09;17.17;;;7.80;;
11675;SDS011;5894;42.768;23.404;2023-05-23T04:53:52;9.43;;;7.80;;
11675;SDS011;5894;42.768;23.404;2023-05-23T04:56:20;8.88;;;7.95;;
11675;SDS011;5894;42.768;23.404;2023-05-23T04:58:48;12.45;;;8.15;;
11675;SDS011;5894;42.768;23.404;2023-05-23T05:01:15;12.30;;;9.27;;
11675;SDS011;5894;42.768;23.404;2023-05-23T05:03:43;10.35;;;8.90;;
11675;SDS011;5894;42.768;23.404;2023-05-23T05:06:11;11.32;;;7.95;;
11675;SDS011;5894;42.768;23.404;2023-05-23T05:08:38;11.20;;;7.80;;
11675;SDS011;5894;42.768;23.404;2023-05-23T05:11:06;9.93;;;8.68;;
11675;SDS011;5894;42.768;23.404;2023-05-23T05:13:34;11.05;;;8.70;;
11675;SDS011;5894;42.768;23.404;2023-05-23T05:16:04;9.35;;;8.35;;
11675;SDS011;5894;42.768;23.404;2023-05-23T05:18:32;11.43;;;7.72;;
11675;SDS011;5894;42.768;23.404;2023-05-23T05:21:01;9.25;;;7.55;;
11675;SDS011;5894;42.768;23.404;2023-05-23T05:23:29;11.50;;;8.38;;
11675;SDS011;5894;42.768;23.404;2023-05-23T05:25:58;9.95;;;8.23;;
11675;SDS011;5894;42.768;23.404;2023-05-23T05:28:26;9.45;;;8.43;;
11675;SDS011;5894;42.768;23.404;2023-05-23T05:30:54;10.55;;;8.75;;
11675;SDS011;5894;42.768;23.404;2023-05-23T05:33:25;11.75;;;8.73;;
11675;SDS011;5894;42.768;23.404;2023-05-23T05:36:02;11.82;;;9.30;;
11675;SDS011;5894;42.768;23.404;2023-05-23T05:38:29;13.57;;;9.85;;
11675;SDS011;5894;42.768;23.404;2023-05-23T05:40:57;12.00;;;9.60;;
11675;SDS011;5894;42.768;23.404;2023-05-23T05:43:27;14.32;;;10.57;;
11675;SDS011;5894;42.768;23.404;2023-05-23T05:45:54;19.38;;;14.55;;
11675;SDS011;5894;42.768;23.404;2023-05-23T05:48:24;25.17;;;17.58;;
11675;SDS011;5894;42.768;23.404;2023-05-23T05:50:54;20.45;;;14.23;;
11675;SDS011;5894;42.768;23.404;2023-05-23T05:53:21;14.48;;;11.40;;
11675;SDS011;5894;42.768;23.404;2023-05-23T05:55:49;14.35;;;10.82;;
11675;SDS011;5894;42.768;23.404;2023-05-23T05:58:16;13.68;;;10.77;;
11675;SDS011;5894;42.768;23.404;2023-05-23T06:00:54;14.27;;;10.60;;
11675;SDS011;5894;42.768;23.404;2023-05-23T06:03:21;12.35;;;9.88;;
11675;SDS011;5894;42.768;23.404;2023-05-23T06:05:54;12.95;;;9.48;;
11675;SDS011;5894;42.768;23.404;2023-05-23T06:08:22;13.25;;;9.70;;
11675;SDS011;5894;42.768;23.404;2023-05-23T06:10:49;12.88;;;9.50;;
11675;SDS011;5894;42.768;23.404;2023-05-23T06:13:16;13.82;;;9.48;;
11675;SDS011;5894;42.768;23.404;2023-05-23T06:15:48;10.68;;;9.52;;
11675;SDS011;5894;42.768;23.404;2023-05-23T06:18:16;11.25;;;9.68;;
11675;SDS011;5894;42.768;23.404;2023-05-23T06:20:43;12.55;;;9.93;;
11675;SDS011;5894;42.768;23.404;2023-05-23T06:23:15;12.82;;;9.88;;
11675;SDS011;5894;42.768;23.404;2023-05-23T06:25:45;13.75;;;9.70;;
11675;SDS011;5894;42.768;23.404;2023-05-23T06:28:12;10.98;;;9.00;;
11675;SDS011;5894;42.768;23.404;2023-05-23T06:30:45;10.75;;;8.80;;
11675;SDS011;5894;42.768;23.404;2023-05-23T06:33:12;12.80;;;9.45;;
11675;SDS011;5894;42.768;23.404;2023-05-23T06:35:41;12.38;;;9.20;;
11675;SDS011;5894;42.768;23.404;2023-05-23T06:38:08;10.38;;;9.20;;
11675;SDS011;5894;42.768;23.404;2023-05-23T06:40:37;11.75;;;9.38;;
11675;SDS011;5894;42.768;23.404;2023-05-23T06:43:04;11.38;;;9.75;;
11675;SDS011;5894;42.768;23.404;2023-05-23T06:45:45;11.23;;;9.45;;
11675;SDS011;5894;42.768;23.404;2023-05-23T06:48:12;13.27;;;9.43;;
11675;SDS011;5894;42.768;23.404;2023-05-23T06:50:40;13.07;;;10.07;;
11675;SDS011;5894;42.768;23.404;2023-05-23T06:53:09;11.98;;;9.73;;
11675;SDS011;5894;42.768;23.404;2023-05-23T06:55:38;12.40;;;10.23;;
11675;SDS011;5894;42.768;23.404;2023-05-23T06:58:07;12.48;;;10.13;;
11675;SDS011;5894;42.768;23.404;2023-05-23T07:00:36;12.00;;;10.20;;
11675;SDS011;5894;42.768;23.404;2023-05-23T07:03:13;14.93;;;10.15;;
11675;SDS011;5894;42.768;23.404;2023-05-23T07:05:42;11.27;;;9.15;;
11675;SDS011;5894;42.768;23.404;2023-05-23T07:08:10;12.25;;;10.00;;
11675;SDS011;5894;42.768;23.404;2023-05-23T07:10:41;12.02;;;9.73;;
11675;SDS011;5894;42.768;23.404;2023-05-23T07:13:28;12.13;;;10.25;;
11675;SDS011;5894;42.768;23.404;2023-05-23T07:15:55;13.40;;;9.90;;
11675;SDS011;5894;42.768;23.404;2023-05-23T07:18:23;10.93;;;9.80;;
11675;SDS011;5894;42.768;23.404;2023-05-23T07:20:50;14.23;;;10.30;;
11675;SDS011;5894;42.768;23.404;2023-05-23T07:23:18;11.98;;;10.20;;
11675;SDS011;5894;42.768;23.404;2023-05-23T07:25:47;12.45;;;10.30;;
11675;SDS011;5894;42.768;23.404;2023-05-23T07:28:24;15.10;;;10.18;;
11675;SDS011;5894;42.768;23.404;2023-05-23T07:30:53;12.15;;;10.85;;
11675;SDS011;5894;42.768;23.404;2023-05-23T07:33:21;11.77;;;10.40;;
11675;SDS011;5894;42.768;23.404;2023-05-23T07:35:49;12.68;;;10.65;;
11675;SDS011;5894;42.768;23.404;2023-05-23T07:38:16;12.55;;;10.45;;
11675;SDS011;5894;42.768;23.404;2023-05-23T07:40:44;13.52;;;10.60;;
11675;SDS011;5894;42.768;23.404;2023-05-23T07:43:13;12.85;;;10.88;;
11675;SDS011;5894;42.768;23.404;2023-05-23T07:45:40;15.63;;;11.23;;
11675;SDS011;5894;42.768;23.404;2023-05-23T07:48:07;12.95;;;10.32;;
11675;SDS011;5894;42.768;23.404;2023-05-23T07:50:36;13.40;;;10.93;;
11675;SDS011;5894;42.768;23.404;2023-05-23T07:53:06;12.82;;;10.55;;
11675;SDS011;5894;42.768;23.404;2023-05-23T07:55:34;12.93;;;11.45;;
11675;SDS011;5894;42.768;23.404;2023-05-23T07:58:01;14.27;;;11.15;;
11675;SDS011;5894;42.768;23.404;2023-05-23T08:00:29;14.68;;;11.65;;
11675;SDS011;5894;42.768;23.404;2023-05-23T08:03:04;15.13;;;11.77;;
11675;SDS011;5894;42.768;23.404;2023-05-23T08:05:37;13.18;;;10.82;;
11675;SDS011;5894;42.768;23.404;2023-05-23T08:08:05;15.00;;;11.40;;
11675;SDS011;5894;42.768;23.404;2023-05-23T08:10:33;11.07;;;9.55;;
11675;SDS011;5894;42.768;23.404;2023-05-23T08:13:08;16.85;;;12.35;;
11675;SDS011;5894;42.768;23.404;2023-05-23T08:15:45;14.85;;;11.43;;
11675;SDS011;5894;42.768;23.404;2023-05-23T08:18:16;11.95;;;10.77;;
11675;SDS011;5894;42.768;23.404;2023-05-23T08:20:43;13.57;;;9.88;;
11675;SDS011;5894;42.768;23.404;2023-05-23T08:23:10;12.60;;;10.93;;
11675;SDS011;5894;42.768;23.404;2023-05-23T08:25:38;12.85;;;10.88;;
11675;SDS011;5894;42.768;23.404;2023-05-23T08:28:05;11.80;;;9.82;;
11675;SDS011;5894;42.768;23.404;2023-05-23T08:30:41;14.13;;;10.73;;
11675;SDS011;5894;42.768;23.404;2023-05-23T08:33:09;14.00;;;10.75;;
11675;SDS011;5894;42.768;23.404;2023-05-23T08:35:39;11.60;;;9.27;;
11675;SDS011;5894;42.768;23.404;2023-05-23T08:38:09;10.30;;;9.10;;
11675;SDS011;5894;42.768;23.404;2023-05-23T08:40:44;12.73;;;9.60;;
11675;SDS011;5894;42.768;23.404;2023-05-23T08:43:19;11.20;;;9.52;;
11675;SDS011;5894;42.768;23.404;2023-05-23T08:45:47;12.00;;;9.30;;
11675;SDS011;5894;42.768;23.404;2023-05-23T08:48:18;9.57;;;8.65;;
11675;SDS011;5894;42.768;23.404;2023-05-23T08:50:49;10.35;;;9.13;;
11675;SDS011;5894;42.768;23.404;2023-05-23T08:53:19;14.50;;;10.13;;
11675;SDS011;5894;42.768;23.404;2023-05-23T08:55:56;10.48;;;9.13;;
11675;SDS011;5894;42.768;23.404;2023-05-23T08:58:32;10.88;;;9.18;;
11675;SDS011;5894;42.768;23.404;2023-05-23T09:01:03;11.35;;;9.40;;
11675;SDS011;5894;42.768;23.404;2023-05-23T09:03:32;10.32;;;9.18;;
11675;SDS011;5894;42.768;23.404;2023-05-23T09:06:25;13.57;;;9.07;;
11675;SDS011;5894;42.768;23.404;2023-05-23T09:08:53;9.38;;;8.07;;
11675;SDS011;5894;42.768;23.404;2023-05-23T09:11:23;15.85;;;8.57;;
11675;SDS011;5894;42.768;23.404;2023-05-23T09:13:51;10.15;;;8.32;;
11675;SDS011;5894;42.768;23.404;2023-05-23T09:16:20;12.07;;;8.18;;
11675;SDS011;5894;42.768;23.404;2023-05-23T09:18:56;15.25;;;8.55;;
11675;SDS011;5894;42.768;23.404;2023-05-23T09:21:24;12.63;;;8.32;;
11675;SDS011;5894;42.768;23.404;2023-05-23T09:24:04;8.90;;;7.60;;
11675;SDS011;5894;42.768;23.404;2023-05-23T09:26:32;9.20;;;7.65;;
11675;SDS011;5894;42.768;23.404;2023-05-23T09:29:00;9.43;;;6.80;;
11675;SDS011;5894;42.768;23.404;2023-05-23T09:31:30;10.02;;;7.38;;
11675;SDS011;5894;42.768;23.404;2023-05-23T09:33:59;11.55;;;7.35;;
11675;SDS011;5894;42.768;23.404;2023-05-23T09:36:28;8.27;;;7.03;;
11675;SDS011;5894;42.768;23.404;2023-05-23T09:39:00;7.63;;;6.63;;
11675;SDS011;5894;42.768;23.404;2023-05-23T09:41:31;10.55;;;6.45;;
11675;SDS011;5894;42.768;23.404;2023-05-23T09:44:04;10.13;;;6.50;;
11675;SDS011;5894;42.768;23.404;2023-05-23T09:46:33;11.02;;;6.07;;
11675;SDS011;5894;42.768;23.404;2023-05-23T09:49:04;7.97;;;6.47;;
11675;SDS011;5894;42.768;23.404;2023-05-23T09:51:43;8.85;;;6.75;;
11675;SDS011;5894;42.768;23.404;2023-05-23T09:54:22;9.90;;;7.20;;
11675;SDS011;5894;42.768;23.404;2023-05-23T09:56:49;10.00;;;7.18;;
11675;SDS011;5894;42.768;23.404;2023-05-23T09:59:20;10.38;;;7.70;;
11675;SDS011;5894;42.768;23.404;2023-05-23T10:01:50;8.00;;;6.55;;
11675;SDS011;5894;42.768;23.404;2023-05-23T10:04:21;9.48;;;6.85;;
11675;SDS011;5894;42.768;23.404;2023-05-23T10:06:52;8.02;;;6.43;;
11675;SDS011;5894;42.768;23.404;2023-05-23T10:09:26;9.52;;;5.82;;
11675;SDS011;5894;42.768;23.404;2023-05-23T10:12:20;6.65;;;4.82;;
11675;SDS011;5894;42.768;23.404;2023-05-23T10:15:05;5.13;;;3.75;;
11675;SDS011;5894;42.768;23.404;2023-05-23T10:17:35;8.13;;;4.97;;
11675;SDS011;5894;42.768;23.404;2023-05-23T10:20:13;5.18;;;4.65;;
11675;SDS011;5894;42.768;23.404;2023-05-23T10:22:42;8.32;;;5.15;;
11675;SDS011;5894;42.768;23.404;2023-05-23T10:25:10;6.90;;;4.70;;
11675;SDS011;5894;42.768;23.404;2023-05-23T10:27:38;8.68;;;4.93;;
11675;SDS011;5894;42.768;23.404;2023-05-23T10:30:05;11.38;;;4.82;;
11675;SDS011;5894;42.768;23.404;2023-05-23T10:32:33;8.25;;;4.47;;
11675;SDS011;5894;42.768;23.404;2023-05-23T10:35:04;7.88;;;3.95;;
11675;SDS011;5894;42.768;23.404;2023-05-23T10:37:41;4.72;;;3.55;;
11675;SDS011;5894;42.768;23.404;2023-05-23T10:40:16;8.45;;;4.15;;
11675;SDS011;5894;42.768;23.404;2023-05-23T10:42:56;8.70;;;3.85;;
11675;SDS011;5894;42.768;23.404;2023-05-23T10:45:33;10.63;;;3.50;;
11675;SDS011;5894;42.768;23.404;2023-05-23T10:48:15;5.22;;;3.42;;
11675;SDS011;5894;42.768;23.404;2023-05-23T10:50:49;6.65;;;3.88;;
11675;SDS011;5894;42.768;23.404;2023-05-23T10:53:30;5.10;;;3.30;;
11675;SDS011;5894;42.768;23.404;2023-05-23T10:55:57;6.18;;;3.40;;
11675;SDS011;5894;42.768;23.404;2023-05-23T10:58:25;6.68;;;5.93;;
11675;SDS011;5894;42.768;23.404;2023-05-23T11:00:58;5.05;;;3.55;;
11675;SDS011;5894;42.768;23.404;2023-05-23T11:03:30;4.72;;;3.50;;
11675;SDS011;5894;42.768;23.404;2023-05-23T11:06:01;8.02;;;4.22;;
11675;SDS011;5894;42.768;23.404;2023-05-23T11:08:36;8.23;;;3.60;;
11675;SDS011;5894;42.768;23.404;2023-05-23T11:11:07;3.92;;;3.50;;
11675;SDS011;5894;42.768;23.404;2023-05-23T11:13:53;5.00;;;3.47;;
11675;SDS011;5894;42.768;23.404;2023-05-23T11:16:23;5.72;;;3.35;;
11675;SDS011;5894;42.768;23.404;2023-05-23T11:18:50;7.43;;;3.50;;
11675;SDS011;5894;42.768;23.404;2023-05-23T11:21:18;3.85;;;3.33;;
11675;SDS011;5894;42.768;23.404;2023-05-23T11:23:48;6.30;;;3.78;;
11675;SDS011;5894;42.768;23.404;2023-05-23T11:26:30;5.15;;;3.33;;
11675;SDS011;5894;42.768;23.404;2023-05-23T11:28:58;7.13;;;3.92;;
11675;SDS011;5894;42.768;23.404;2023-05-23T11:31:27;4.97;;;3.35;;
11675;SDS011;5894;42.768;23.404;2023-05-23T11:33:55;5.93;;;2.90;;
11675;SDS011;5894;42.768;23.404;2023-05-23T11:36:22;3.58;;;3.28;;
11675;SDS011;5894;42.768;23.404;2023-05-23T11:38:51;3.80;;;3.10;;
11675;SDS011;5894;42.768;23.404;2023-05-23T11:41:18;3.83;;;3.05;;
11675;SDS011;5894;42.768;23.404;2023-05-23T11:43:49;7.35;;;3.30;;
11675;SDS011;5894;42.768;23.404;2023-05-23T11:46:17;10.25;;;3.47;;
11675;SDS011;5894;42.768;23.404;2023-05-23T11:48:45;5.35;;;3.05;;
11675;SDS011;5894;42.768;23.404;2023-05-23T11:51:12;5.43;;;3.50;;
11675;SDS011;5894;42.768;23.404;2023-05-23T11:53:39;6.07;;;3.28;;
11675;SDS011;5894;42.768;23.404;2023-05-23T11:56:08;4.95;;;3.33;;
11675;SDS011;5894;42.768;23.404;2023-05-23T11:58:36;2.92;;;2.70;;
11675;SDS011;5894;42.768;23.404;2023-05-23T12:01:06;4.15;;;3.55;;
11675;SDS011;5894;42.768;23.404;2023-05-23T12:03:34;4.93;;;2.85;;
11675;SDS011;5894;42.768;23.404;2023-05-23T12:06:11;6.90;;;3.30;;
11675;SDS011;5894;42.768;23.404;2023-05-23T12:08:41;5.93;;;2.60;;
11675;SDS011;5894;42.768;23.404;2023-05-23T12:11:10;3.22;;;2.50;;
11675;SDS011;5894;42.768;23.404;2023-05-23T12:13:39;6.40;;;3.15;;
11675;SDS011;5894;42.768;23.404;2023-05-23T12:16:07;5.50;;;2.67;;
11675;SDS011;5894;42.768;23.404;2023-05-23T12:18:36;3.95;;;2.75;;
11675;SDS011;5894;42.768;23.404;2023-05-23T12:21:03;2.63;;;2.40;;
11675;SDS011;5894;42.768;23.404;2023-05-23T12:23:32;6.57;;;2.70;;
11675;SDS011;5894;42.768;23.404;2023-05-23T12:26:02;7.38;;;3.10;;
11675;SDS011;5894;42.768;23.404;2023-05-23T12:28:36;4.13;;;2.90;;
11675;SDS011;5894;42.768;23.404;2023-05-23T12:31:08;5.15;;;2.53;;
11675;SDS011;5894;42.768;23.404;2023-05-23T12:33:39;6.15;;;3.00;;
11675;SDS011;5894;42.768;23.404;2023-05-23T12:36:08;2.92;;;2.63;;
11675;SDS011;5894;42.768;23.404;2023-05-23T12:38:35;4.25;;;2.83;;
11675;SDS011;5894;42.768;23.404;2023-05-23T12:41:08;6.82;;;3.20;;
11675;SDS011;5894;42.768;23.404;2023-05-23T12:43:40;7.60;;;3.85;;
11675;SDS011;5894;42.768;23.404;2023-05-23T12:46:15;12.73;;;3.30;;
11675;SDS011;5894;42.768;23.404;2023-05-23T12:48:43;8.35;;;3.40;;
11675;SDS011;5894;42.768;23.404;2023-05-23T12:51:11;4.13;;;2.90;;
11675;SDS011;5894;42.768;23.404;2023-05-23T12:53:38;4.07;;;2.90;;
11675;SDS011;5894;42.768;23.404;2023-05-23T12:56:05;3.55;;;2.70;;
11675;SDS011;5894;42.768;23.404;2023-05-23T12:58:32;3.95;;;2.80;;
11675;SDS011;5894;42.768;23.404;2023-05-23T13:01:01;6.20;;;5.47;;
11675;SDS011;5894;42.768;23.404;2023-05-23T13:03:29;10.20;;;3.10;;
11675;SDS011;5894;42.768;23.404;2023-05-23T13:05:57;5.05;;;3.08;;
11675;SDS011;5894;42.768;23.404;2023-05-23T13:08:25;5.30;;;2.70;;
11675;SDS011;5894;42.768;23.404;2023-05-23T13:10:53;6.85;;;2.90;;
11675;SDS011;5894;42.768;23.404;2023-05-23T13:13:22;4.85;;;3.97;;
11675;SDS011;5894;42.768;23.404;2023-05-23T13:15:49;10.48;;;4.20;;
11675;SDS011;5894;42.768;23.404;2023-05-23T13:18:18;5.47;;;4.43;;
11675;SDS011;5894;42.768;23.404;2023-05-23T13:20:45;3.30;;;2.78;;
11675;SDS011;5894;42.768;23.404;2023-05-23T13:23:12;6.45;;;3.00;;
11675;SDS011;5894;42.768;23.404;2023-05-23T13:25:40;5.75;;;2.72;;
11675;SDS011;5894;42.768;23.404;2023-05-23T13:28:07;4.82;;;3.15;;
11675;SDS011;5894;42.768;23.404;2023-05-23T13:30:34;7.35;;;4.60;;
11675;SDS011;5894;42.768;23.404;2023-05-23T13:33:01;5.38;;;3.88;;
11675;SDS011;5894;42.768;23.404;2023-05-23T13:35:30;4.00;;;2.60;;
11675;SDS011;5894;42.768;23.404;2023-05-23T13:37:57;4.20;;;3.03;;
11675;SDS011;5894;42.768;23.404;2023-05-23T13:40:24;4.65;;;3.38;;
11675;SDS011;5894;42.768;23.404;2023-05-23T13:42:53;7.28;;;4.05;;
11675;SDS011;5894;42.768;23.404;2023-05-23T13:45:20;6.40;;;4.15;;
11675;SDS011;5894;42.768;23.404;2023-05-23T13:47:48;10.60;;;3.60;;
11675;SDS011;5894;42.768;23.404;2023-05-23T13:50:15;14.20;;;4.70;;
11675;SDS011;5894;42.768;23.404;2023-05-23T13:52:44;4.65;;;3.00;;
11675;SDS011;5894;42.768;23.404;2023-05-23T13:55:11;4.63;;;2.90;;
11675;SDS011;5894;42.768;23.404;2023-05-23T13:57:38;4.00;;;2.97;;
11675;SDS011;5894;42.768;23.404;2023-05-23T14:00:05;5.93;;;3.30;;
11675;SDS011;5894;42.768;23.404;2023-05-23T14:02:34;4.68;;;2.65;;
11675;SDS011;5894;42.768;23.404;2023-05-23T14:05:01;5.03;;;2.90;;
11675;SDS011;5894;42.768;23.404;2023-05-23T14:07:28;3.75;;;2.60;;
11675;SDS011;5894;42.768;23.404;2023-05-23T14:09:58;3.60;;;2.80;;
11675;SDS011;5894;42.768;23.404;2023-05-23T14:12:25;2.50;;;2.30;;
11675;SDS011;5894;42.768;23.404;2023-05-23T14:14:52;4.82;;;2.70;;
11675;SDS011;5894;42.768;23.404;2023-05-23T14:17:19;3.22;;;2.58;;
11675;SDS011;5894;42.768;23.404;2023-05-23T14:19:47;3.90;;;2.75;;
11675;SDS011;5894;42.768;23.404;2023-05-23T14:22:14;3.13;;;2.50;;
11675;SDS011;5894;42.768;23.404;2023-05-23T14:24:41;5.72;;;2.78;;
11675;SDS011;5894;42.768;23.404;2023-05-23T14:27:09;5.88;;;2.90;;
11675;SDS011;5894;42.768;23.404;2023-05-23T14:29:37;3.20;;;2.80;;
11675;SDS011;5894;42.768;23.404;2023-05-23T14:32:04;4.43;;;2.90;;
11675;SDS011;5894;42.768;23.404;2023-05-23T14:34:31;6.40;;;5.25;;
11675;SDS011;5894;42.768;23.404;2023-05-23T14:36:59;5.90;;;3.35;;
11675;SDS011;5894;42.768;23.404;2023-05-23T14:39:26;5.25;;;3.05;;
11675;SDS011;5894;42.768;23.404;2023-05-23T14:41:54;2.90;;;2.65;;
11675;SDS011;5894;42.768;23.404;2023-05-23T14:44:22;5.03;;;2.80;;
11675;SDS011;5894;42.768;23.404;2023-05-23T14:46:49;3.25;;;2.50;;
11675;SDS011;5894;42.768;23.404;2023-05-23T14:49:16;4.95;;;2.67;;
11675;SDS011;5894;42.768;23.404;2023-05-23T14:51:44;5.80;;;3.25;;
11675;SDS011;5894;42.768;23.404;2023-05-23T14:54:11;2.97;;;2.60;;
11675;SDS011;5894;42.768;23.404;2023-05-23T14:56:39;4.30;;;2.65;;
11675;SDS011;5894;42.768;23.404;2023-05-23T14:59:07;3.95;;;2.70;;